Time;durP1;ratioP1;P1;durP2;ratioP2;P2;SDS_P1;SDS_P2;PMS_P1;PMS_P2;Temp;Humidity;BMP_temperature;BMP_pressure;BME280_temperature;BME280_humidity;BME280_pressure;Samples;Min_cycle;Max_cycle;Signal;HPM_P1;HPM_P2
2022/03/05 00:01:12;;;;;;;12.70;9.10;;;2.60;1.00;;;;;;5090798;28;20449;-61
2022/03/05 00:03:37;;;;;;;12.87;9.20;;;;;;;;;;5091953;28;20207;-60
2022/03/05 00:06:03;;;;;;;15.13;10.23;;;2.60;1.00;;;;;;5095836;28;20531;-60
2022/03/05 00:08:29;;;;;;;16.10;11.00;;;2.70;1.00;;;;;;5098730;27;20452;-60
2022/03/05 00:10:54;;;;;;;15.17;11.60;;;2.70;1.00;;;;;;5100736;28;20206;-59
2022/03/05 00:13:20;;;;;;;10.77;8.63;;;;;;;;;;5094904;28;20186;-61
2022/03/05 00:15:47;;;;;;;14.20;8.93;;;2.80;1.00;;;;;;5082789;28;20347;-59
2022/03/05 00:18:12;;;;;;;13.50;10.70;;;2.80;1.00;;;;;;5091878;28;20979;-61
2022/03/05 00:20:38;;;;;;;14.13;10.20;;;2.90;1.00;;;;;;5099646;28;20448;-61
2022/03/05 00:23:03;;;;;;;15.20;9.17;;;2.80;1.00;;;;;;5092838;28;20206;-59
2022/03/05 00:25:29;;;;;;;15.13;10.70;;;;;;;;;;5106239;28;20330;-60
2022/03/05 00:27:55;;;;;;;16.60;9.23;;;;;;;;;;5089494;28;20198;-59
2022/03/05 00:30:21;;;;;;;11.60;8.00;;;2.80;1.00;;;;;;5087718;28;20545;-60
2022/03/05 00:32:47;;;;;;;15.77;10.40;;;2.90;1.00;;;;;;5084866;28;20456;-60
2022/03/05 00:35:13;;;;;;;14.87;11.00;;;3.00;1.00;;;;;;5087158;28;20214;-60
2022/03/05 00:37:39;;;;;;;17.73;11.27;;;3.10;1.00;;;;;;5090391;28;20279;-59
2022/03/05 00:40:06;;;;;;;16.50;10.90;;;3.10;1.00;;;;;;5092296;28;20480;-61
2022/03/05 00:42:32;;;;;;;18.40;11.53;;;;;;;;;;5089709;28;20461;-60
2022/03/05 00:44:57;;;;;;;14.20;10.80;;;3.00;1.00;;;;;;5089736;28;20523;-59
2022/03/05 00:47:23;;;;;;;14.27;9.83;;;3.00;1.00;;;;;;5092132;28;20527;-60
2022/03/05 00:49:48;;;;;;;14.07;10.30;;;3.00;1.00;;;;;;5092144;28;20199;-61
2022/03/05 00:52:14;;;;;;;16.00;11.73;;;3.10;1.00;;;;;;5091290;28;20244;-60
2022/03/05 00:54:39;;;;;;;16.83;10.77;;;3.00;1.00;;;;;;5093041;28;20187;-61
2022/03/05 00:57:05;;;;;;;10.37;8.60;;;;;;;;;;5097718;28;20198;-61
2022/03/05 00:59:31;;;;;;;14.20;9.67;;;2.90;1.00;;;;;;5097530;28;20186;-61
2022/03/05 01:01:57;;;;;;;13.43;9.50;;;;;;;;;;5090363;28;20457;-60
2022/03/05 01:04:22;;;;;;;13.87;9.07;;;3.00;1.00;;;;;;5091526;28;20179;-59
2022/03/05 01:06:48;;;;;;;13.20;10.13;;;3.00;1.00;;;;;;5091951;28;20436;-60
2022/03/05 01:09:14;;;;;;;17.90;11.00;;;3.00;1.00;;;;;;5093020;28;20174;-60
2022/03/05 01:11:40;;;;;;;14.83;10.47;;;2.90;1.00;;;;;;5090270;28;20174;-59
2022/03/05 01:14:07;;;;;;;17.07;10.27;;;3.00;1.00;;;;;;5091236;28;20447;-60
2022/03/05 01:16:34;;;;;;;21.13;11.30;;;3.00;1.00;;;;;;5089057;28;20259;-60
2022/03/05 01:19:00;;;;;;;15.93;11.10;;;2.90;1.00;;;;;;5097609;27;20771;-61
2022/03/05 01:21:27;;;;;;;18.13;11.23;;;3.00;1.00;;;;;;5086661;28;20471;-59
2022/03/05 01:23:54;;;;;;;17.23;11.57;;;3.10;1.00;;;;;;5101498;28;20491;-60
2022/03/05 01:26:19;;;;;;;15.17;12.00;;;3.20;1.00;;;;;;5090994;28;20448;-61
2022/03/05 01:28:45;;;;;;;16.50;12.03;;;3.20;1.00;;;;;;5089931;28;20995;-60
2022/03/05 01:31:10;;;;;;;15.97;12.03;;;3.20;1.00;;;;;;5089681;28;20266;-61
2022/03/05 01:33:36;;;;;;;18.30;11.47;;;;;;;;;;5093873;28;20182;-60
2022/03/05 01:36:02;;;;;;;20.33;12.10;;;3.20;1.00;;;;;;5093466;28;20242;-58
2022/03/05 01:38:28;;;;;;;14.80;11.03;;;;;;;;;;5095801;28;20930;-60
2022/03/05 01:40:54;;;;;;;17.03;11.73;;;3.20;1.00;;;;;;5088400;28;20422;-59
2022/03/05 01:43:19;;;;;;;14.90;11.10;;;3.20;1.00;;;;;;5101948;28;20507;-60
2022/03/05 01:45:45;;;;;;;18.53;12.30;;;3.20;1.00;;;;;;5088659;28;20218;-61
2022/03/05 01:48:10;;;;;;;17.87;11.53;;;3.20;1.00;;;;;;5096790;28;20186;-60
2022/03/05 01:50:36;;;;;;;14.70;11.10;;;3.20;1.00;;;;;;5090322;28;20195;-58
2022/03/05 01:53:02;;;;;;;15.30;10.40;;;;;;;;;;5087136;28;20197;-59
2022/03/05 01:55:27;;;;;;;16.60;11.37;;;3.20;1.00;;;;;;5091311;28;20189;-59
2022/03/05 01:57:53;;;;;;;13.73;9.77;;;3.70;1.00;;;;;;5090167;28;20444;-59
2022/03/05 02:00:19;;;;;;;19.97;10.77;;;3.20;1.00;;;;;;5085174;28;20194;-61
2022/03/05 02:02:46;;;;;;;15.53;9.47;;;3.10;1.00;;;;;;5086470;28;20464;-59
2022/03/05 02:05:13;;;;;;;14.80;8.87;;;3.10;1.00;;;;;;5091118;28;20468;-60
2022/03/05 02:07:39;;;;;;;14.70;9.30;;;3.20;1.00;;;;;;5089605;28;20456;-59
2022/03/05 02:10:08;;;;;;;10.30;8.60;;;3.20;1.00;;;;;;5086137;28;20941;-60
2022/03/05 02:12:35;;;;;;;11.97;8.80;;;3.10;1.00;;;;;;5094275;28;20459;-58
2022/03/05 02:15:02;;;;;;;10.67;8.30;;;3.20;1.00;;;;;;5087133;28;20856;-62
2022/03/05 02:17:28;;;;;;;12.77;9.43;;;3.20;1.00;;;;;;5090578;28;20452;-61
2022/03/05 02:19:54;;;;;;;12.50;10.40;;;3.30;1.00;;;;;;5085387;28;21031;-58
2022/03/05 02:22:20;;;;;;;11.83;9.17;;;3.30;1.00;;;;;;5098704;28;20468;-59
2022/03/05 02:24:50;;;;;;;9.90;8.90;;;3.10;1.00;;;;;;5087390;28;20521;-60
2022/03/05 02:27:16;;;;;;;10.90;9.30;;;;;;;;;;5090153;28;20255;-60
2022/03/05 02:29:41;;;;;;;12.90;10.23;;;3.10;1.00;;;;;;5095113;28;20493;-60
2022/03/05 02:32:07;;;;;;;11.97;9.80;;;3.10;1.00;;;;;;5090922;28;20452;-58
2022/03/05 02:34:33;;;;;;;13.30;10.00;;;3.20;1.00;;;;;;5095488;28;20714;-58
2022/03/05 02:36:59;;;;;;;16.73;10.60;;;;;;;;;;5090111;28;20201;-59
2022/03/05 02:39:25;;;;;;;11.40;9.77;;;3.20;1.00;;;;;;5090133;28;20452;-59
2022/03/05 02:41:54;;;;;;;16.23;9.13;;;3.20;1.00;;;;;;5092120;28;20468;-58
2022/03/05 02:44:21;;;;;;;11.70;9.30;;;3.20;1.00;;;;;;5088798;28;20919;-59
2022/03/05 02:46:47;;;;;;;14.53;10.33;;;;;;;;;;5084342;28;20929;-58
2022/03/05 02:49:12;;;;;;;13.83;10.50;;;3.20;1.00;;;;;;5089178;28;20568;-59
2022/03/05 02:51:38;;;;;;;17.83;9.80;;;3.20;1.00;;;;;;5089380;28;20957;-59
2022/03/05 02:54:04;;;;;;;13.47;10.07;;;3.10;1.00;;;;;;5091659;28;20179;-59
2022/03/05 02:56:30;;;;;;;13.93;10.27;;;;;;;;;;5085786;28;20445;-59
2022/03/05 02:58:56;;;;;;;12.17;9.50;;;;;;;;;;5089213;28;20548;-61
2022/03/05 03:01:22;;;;;;;14.90;9.50;;;2.90;1.00;;;;;;5088425;28;20448;-60
2022/03/05 03:03:48;;;;;;;13.10;9.40;;;;;;;;;;5093206;28;20491;-60
2022/03/05 03:06:13;;;;;;;12.23;8.90;;;2.90;1.00;;;;;;5089519;28;20182;-58
2022/03/05 03:08:39;;;;;;;14.40;9.80;;;2.90;1.00;;;;;;5089339;28;20460;-59
2022/03/05 03:11:13;;;;;;;14.17;10.07;;;2.80;1.00;;;;;;5089848;28;20191;-59
2022/03/05 03:13:39;;;;;;;15.47;9.97;;;2.80;1.00;;;;;;5086658;28;20193;-59
2022/03/05 03:16:30;;;;;;;13.80;10.10;;;2.90;1.00;;;;;;5086242;28;20505;-58
2022/03/05 03:18:56;;;;;;;16.90;11.90;;;;;;;;;;5071766;28;20206;-59
2022/03/05 03:21:22;;;;;;;16.10;10.50;;;2.70;1.00;;;;;;5092704;28;21984;-60
2022/03/05 03:23:47;;;;;;;13.43;9.80;;;2.60;1.00;;;;;;5089062;28;20452;-59
2022/03/05 03:26:13;;;;;;;16.70;10.10;;;2.30;1.00;;;;;;5085812;28;20195;-60
2022/03/05 03:28:39;;;;;;;15.80;10.70;;;2.60;1.00;;;;;;5103425;28;20190;-58
2022/03/05 03:31:13;;;;;;;15.97;10.50;;;2.50;1.00;;;;;;5096828;27;20285;-61
2022/03/05 03:33:39;;;;;;;14.97;10.23;;;;;;;;;;5099406;28;20209;-60
2022/03/05 03:36:13;;;;;;;17.20;11.57;;;2.60;1.00;;;;;;5096577;28;20491;-59
2022/03/05 03:38:40;;;;;;;21.70;11.37;;;2.50;1.00;;;;;;5097938;28;20475;-59
2022/03/05 03:41:14;;;;;;;14.67;10.67;;;2.60;1.00;;;;;;5093557;28;20443;-58
2022/03/05 03:43:40;;;;;;;15.70;10.93;;;2.50;1.00;;;;;;5096194;28;20981;-60
2022/03/05 03:46:15;;;;;;;18.80;12.60;;;2.50;1.00;;;;;;5093722;28;20455;-60
2022/03/05 03:48:40;;;;;;;15.27;10.13;;;2.40;1.00;;;;;;5096183;28;20309;-59
2022/03/05 03:51:12;;;;;;;14.40;10.80;;;2.40;1.00;;;;;;5093535;28;21177;-59
2022/03/05 03:53:38;;;;;;;15.33;10.13;;;2.40;1.00;;;;;;5096167;28;20652;-60
2022/03/05 03:56:04;;;;;;;17.90;11.70;;;2.50;1.00;;;;;;5093179;28;20436;-59
2022/03/05 03:58:30;;;;;;;17.00;11.40;;;;;;;;;;5091572;28;20872;-59
2022/03/05 04:00:55;;;;;;;16.47;10.70;;;2.40;1.00;;;;;;5099244;28;20515;-59
2022/03/05 04:03:21;;;;;;;17.17;11.97;;;2.40;1.00;;;;;;5092986;28;20468;-60
2022/03/05 04:05:46;;;;;;;21.33;11.60;;;2.40;1.00;;;;;;5092908;28;20206;-58
2022/03/05 04:10:56;;;;;;;19.87;12.40;;;;;;;;;;5092383;28;20235;-60
2022/03/05 04:13:22;;;;;;;18.23;11.03;;;2.40;1.00;;;;;;5090872;28;20444;-58
2022/03/05 04:15:48;;;;;;;17.70;11.73;;;2.50;1.00;;;;;;5090770;28;20978;-59
2022/03/05 04:18:13;;;;;;;16.60;10.93;;;2.60;1.00;;;;;;5091512;28;20820;-58
2022/03/05 04:20:39;;;;;;;19.83;12.07;;;2.60;1.00;;;;;;5087300;28;20187;-59
2022/03/05 04:23:05;;;;;;;17.80;10.63;;;2.70;1.00;;;;;;5112158;28;20194;-59
2022/03/05 04:25:30;;;;;;;16.43;10.87;;;2.70;1.00;;;;;;5098747;28;21109;-59
2022/03/05 04:27:56;;;;;;;16.00;10.03;;;;;;;;;;5097809;28;20178;-58
2022/03/05 04:30:22;;;;;;;15.53;11.17;;;2.70;1.00;;;;;;5088466;28;20223;-59
2022/03/05 04:32:48;;;;;;;18.83;11.60;;;;;;;;;;5099554;28;20457;-58
2022/03/05 04:35:14;;;;;;;18.50;11.67;;;2.70;1.00;;;;;;5094958;28;20231;-60
2022/03/05 04:37:40;;;;;;;21.40;10.97;;;;;;;;;;5094144;28;20534;-57
2022/03/05 04:40:06;;;;;;;16.13;11.00;;;2.80;1.00;;;;;;5097838;28;20274;-59
2022/03/05 04:42:32;;;;;;;17.87;12.13;;;2.80;1.00;;;;;;5091096;28;20495;-59
2022/03/05 04:44:58;;;;;;;15.00;10.70;;;2.70;1.00;;;;;;5089473;28;20943;-60
2022/03/05 04:47:24;;;;;;;17.80;12.03;;;2.80;1.00;;;;;;5096462;28;20216;-59
2022/03/05 04:49:50;;;;;;;17.77;12.37;;;2.70;1.00;;;;;;5096569;28;20440;-60
2022/03/05 04:52:15;;;;;;;16.37;10.97;;;2.70;1.00;;;;;;5089012;28;20582;-59
2022/03/05 04:54:41;;;;;;;16.20;11.20;;;2.70;1.00;;;;;;5093448;28;20248;-58
2022/03/05 04:57:07;;;;;;;17.00;11.13;;;2.70;1.00;;;;;;5103908;28;20194;-59
2022/03/05 04:59:32;;;;;;;14.30;11.20;;;2.70;1.00;;;;;;5097904;28;20213;-59
2022/03/05 05:01:58;;;;;;;19.53;11.20;;;2.70;1.00;;;;;;5091528;28;20210;-59
2022/03/05 05:04:24;;;;;;;19.57;11.30;;;2.70;1.00;;;;;;5091839;28;20179;-58
2022/03/05 05:06:50;;;;;;;12.27;9.93;;;2.70;1.00;;;;;;5091797;28;20636;-60
2022/03/05 05:09:16;;;;;;;17.87;11.67;;;;;;;;;;5096341;28;20444;-58
2022/03/05 05:11:44;;;;;;;14.53;10.13;;;2.60;1.00;;;;;;5092049;28;20646;-60
2022/03/05 05:14:10;;;;;;;17.07;11.03;;;2.60;1.00;;;;;;5095912;28;20441;-60
2022/03/05 05:16:36;;;;;;;23.33;11.90;;;2.70;1.00;;;;;;5088418;28;20448;-59
2022/03/05 05:21:47;;;;;;;14.90;11.30;;;2.60;1.00;;;;;;5093961;28;20455;-59
2022/03/05 05:24:12;;;;;;;16.97;11.20;;;2.60;1.00;;;;;;5091769;28;20782;-59
2022/03/05 05:26:38;;;;;;;13.80;10.63;;;2.50;1.00;;;;;;5094555;28;20198;-59
2022/03/05 05:29:04;;;;;;;14.20;11.13;;;2.40;1.00;;;;;;5089775;28;20190;-60
2022/03/05 05:31:29;;;;;;;16.30;10.60;;;2.50;1.00;;;;;;5089956;28;20441;-58
2022/03/05 05:33:55;;;;;;;16.87;11.07;;;2.50;1.00;;;;;;5091183;28;20191;-59
2022/03/05 05:36:21;;;;;;;17.03;12.13;;;;;;;;;;5091350;28;20210;-59
2022/03/05 05:38:47;;;;;;;14.90;10.90;;;2.50;1.00;;;;;;5095076;28;20273;-60
2022/03/05 05:41:14;;;;;;;14.37;10.73;;;2.40;1.00;;;;;;5093371;27;20440;-60
2022/03/05 05:43:40;;;;;;;18.40;11.93;;;2.40;1.00;;;;;;5090432;28;20203;-61
2022/03/05 05:46:08;;;;;;;16.70;10.83;;;2.40;1.00;;;;;;5090166;28;20459;-60
2022/03/05 05:48:34;;;;;;;16.70;11.90;;;2.40;1.00;;;;;;5095736;28;20191;-61
2022/03/05 05:50:59;;;;;;;17.00;13.03;;;2.40;1.00;;;;;;5092646;28;20463;-60
2022/03/05 05:53:25;;;;;;;16.63;12.33;;;2.40;1.00;;;;;;5093512;28;20178;-59
2022/03/05 05:55:53;;;;;;;20.17;13.17;;;2.30;1.00;;;;;;5098837;28;20186;-59
2022/03/05 05:58:19;;;;;;;16.33;12.73;;;2.30;1.00;;;;;;5096932;28;20527;-60
2022/03/05 06:00:44;;;;;;;22.90;13.47;;;2.30;1.00;;;;;;5098762;28;20548;-60
2022/03/05 06:03:10;;;;;;;17.70;12.50;;;2.30;1.00;;;;;;5099920;28;20466;-62
2022/03/05 06:05:35;;;;;;;20.53;13.30;;;2.40;1.00;;;;;;5091005;28;20195;-60
2022/03/05 06:08:02;;;;;;;19.50;12.87;;;;;;;;;;5094847;28;20191;-60
2022/03/05 06:10:27;;;;;;;17.30;14.10;;;2.40;1.00;;;;;;5093950;28;20269;-60
2022/03/05 06:12:53;;;;;;;21.33;14.67;;;2.40;1.00;;;;;;5094485;28;20524;-60
2022/03/05 06:15:19;;;;;;;27.40;15.27;;;;;;;;;;5093521;28;20205;-60
2022/03/05 06:17:44;;;;;;;21.00;14.50;;;2.40;1.00;;;;;;5094514;28;20182;-60
2022/03/05 06:20:11;;;;;;;17.73;13.20;;;2.30;1.00;;;;;;5096846;28;20518;-58
2022/03/05 06:22:37;;;;;;;14.53;12.07;;;2.30;1.00;;;;;;5092148;28;20203;-59
2022/03/05 06:25:04;;;;;;;20.40;13.80;;;2.30;1.00;;;;;;5102490;28;20516;-59
2022/03/05 06:27:29;;;;;;;20.73;15.07;;;2.10;1.00;;;;;;5091176;28;20452;-59
2022/03/05 06:29:55;;;;;;;22.30;13.67;;;2.30;1.00;;;;;;5100146;28;21106;-58
2022/03/05 06:32:20;;;;;;;20.23;14.83;;;2.20;1.00;;;;;;5092998;28;20198;-59
2022/03/05 06:34:46;;;;;;;22.53;13.87;;;;;;;;;;5092978;28;20252;-59
2022/03/05 06:37:12;;;;;;;20.07;14.50;;;2.20;1.00;;;;;;5092453;28;20636;-60
2022/03/05 06:39:38;;;;;;;21.50;14.33;;;;;;;;;;5089473;28;20452;-58
2022/03/05 06:42:04;;;;;;;23.67;14.37;;;2.20;1.00;;;;;;5090594;28;20245;-60
2022/03/05 06:44:31;;;;;;;26.83;15.20;;;2.20;1.00;;;;;;5092461;28;21002;-60
2022/03/05 06:46:57;;;;;;;17.67;13.57;;;2.20;1.00;;;;;;5095392;28;20187;-59
2022/03/05 06:49:23;;;;;;;19.17;13.13;;;2.20;1.00;;;;;;5095015;28;20454;-60
2022/03/05 06:51:48;;;;;;;22.70;14.07;;;2.30;1.00;;;;;;5097322;28;20444;-60
2022/03/05 06:54:14;;;;;;;21.90;15.67;;;2.20;1.00;;;;;;5089892;28;20174;-59
2022/03/05 06:56:39;;;;;;;18.17;14.70;;;2.10;1.00;;;;;;5094110;28;20197;-59
2022/03/05 06:59:05;;;;;;;23.07;14.00;;;;;;;;;;5093949;28;20700;-58
2022/03/05 07:01:31;;;;;;;20.37;15.03;;;2.20;1.00;;;;;;5091199;28;20328;-59
2022/03/05 07:03:57;;;;;;;21.63;15.80;;;;;;;;;;5097883;28;20516;-59
2022/03/05 07:06:23;;;;;;;18.90;14.87;;;;;;;;;;5093518;28;20269;-59
2022/03/05 07:08:49;;;;;;;21.00;14.37;;;2.20;1.00;;;;;;5093474;28;20448;-59
2022/03/05 07:11:14;;;;;;;23.63;14.40;;;;;;;;;;5093372;28;20444;-58
2022/03/05 07:13:40;;;;;;;22.10;14.83;;;2.20;1.00;;;;;;5092619;28;20445;-60
2022/03/05 07:16:29;;;;;;;21.23;14.17;;;2.30;1.00;;;;;;5096382;28;20597;-58
2022/03/05 07:18:55;;;;;;;21.13;15.10;;;2.30;1.00;;;;;;5097253;28;20475;-59
2022/03/05 07:21:20;;;;;;;20.73;13.80;;;2.30;1.00;;;;;;5096808;28;20475;-58
2022/03/05 07:23:46;;;;;;;20.13;15.50;;;;;;;;;;5096707;28;20722;-60
2022/03/05 07:26:12;;;;;;;23.43;14.90;;;2.30;1.00;;;;;;5092355;28;20186;-60
2022/03/05 07:28:37;;;;;;;25.80;17.37;;;2.30;1.00;;;;;;5098869;28;20428;-60
2022/03/05 07:31:16;;;;;;;29.20;17.53;;;;;;;;;;5092612;28;20295;-61
2022/03/05 07:33:41;;;;;;;22.67;16.77;;;2.60;1.00;;;;;;5094519;28;20693;-60
2022/03/05 07:36:10;;;;;;;20.30;15.13;;;2.70;1.00;;;;;;5096527;28;20547;-61
2022/03/05 07:38:36;;;;;;;21.40;15.10;;;3.00;1.00;;;;;;5090593;28;20191;-59
2022/03/05 07:41:01;;;;;;;23.73;15.70;;;3.20;1.00;;;;;;5093682;28;20493;-60
2022/03/05 07:43:27;;;;;;;24.07;16.20;;;3.30;1.00;;;;;;5097869;28;20597;-59
2022/03/05 07:45:53;;;;;;;23.33;16.40;;;3.30;1.00;;;;;;5093041;28;20452;-59
2022/03/05 07:48:19;;;;;;;20.23;14.80;;;3.50;1.00;;;;;;5096601;28;20653;-59
2022/03/05 07:50:46;;;;;;;20.30;15.10;;;3.60;1.00;;;;;;5094082;28;20190;-60
2022/03/05 07:53:12;;;;;;;23.40;17.67;;;3.70;1.00;;;;;;5095432;28;20440;-61
2022/03/05 07:55:38;;;;;;;26.50;17.77;;;3.90;1.00;;;;;;5092480;28;20447;-57
2022/03/05 07:58:03;;;;;;;23.60;15.90;;;3.90;1.00;;;;;;5102225;28;20179;-58
2022/03/05 08:00:29;;;;;;;26.47;17.07;;;3.90;1.00;;;;;;5101802;28;20671;-59
2022/03/05 08:02:55;;;;;;;23.23;16.47;;;3.90;1.00;;;;;;5094489;28;20706;-56
2022/03/05 08:05:20;;;;;;;23.60;17.67;;;4.10;1.00;;;;;;5102252;28;20178;-57
2022/03/05 08:07:46;;;;;;;20.83;15.80;;;4.20;1.00;;;;;;5092562;28;20197;-57
2022/03/05 08:10:12;;;;;;;24.13;16.10;;;4.30;1.00;;;;;;5094750;28;20202;-57
2022/03/05 08:12:38;;;;;;;18.80;15.40;;;;;;;;;;5102885;28;20186;-59
2022/03/05 08:15:06;;;;;;;19.90;15.80;;;4.50;1.00;;;;;;5096027;28;20193;-57
2022/03/05 08:17:31;;;;;;;18.67;14.30;;;4.30;1.00;;;;;;5096560;28;20445;-60
2022/03/05 08:19:57;;;;;;;19.57;14.97;;;4.30;1.00;;;;;;5095876;28;20452;-60
2022/03/05 08:22:23;;;;;;;17.03;14.00;;;4.40;1.00;;;;;;5092401;28;20199;-60
2022/03/05 08:24:48;;;;;;;20.67;14.30;;;4.50;1.00;;;;;;5093072;28;20535;-60
2022/03/05 08:27:15;;;;;;;19.53;14.73;;;4.50;1.00;;;;;;5092075;28;21850;-59
2022/03/05 08:29:41;;;;;;;18.27;15.73;;;;;;;;;;5092557;28;20198;-59
2022/03/05 08:32:07;;;;;;;17.00;14.00;;;;;;;;;;5108780;28;20474;-60
2022/03/05 08:34:34;;;;;;;21.27;15.17;;;;;;;;;;5093153;28;20495;-58
2022/03/05 08:36:59;;;;;;;18.40;13.80;;;5.10;1.00;;;;;;5095982;28;20455;-59
2022/03/05 08:39:25;;;;;;;16.03;13.53;;;5.30;1.00;;;;;;5092312;28;20444;-61
2022/03/05 08:41:51;;;;;;;19.50;13.70;;;5.40;1.00;;;;;;5098412;28;20182;-60
2022/03/05 08:44:17;;;;;;;13.10;11.70;;;5.40;1.00;;;;;;5098046;28;20775;-59
2022/03/05 08:46:42;;;;;;;18.07;14.63;;;5.60;1.00;;;;;;5091638;28;20185;-58
2022/03/05 08:49:08;;;;;;;15.57;13.70;;;;;;;;;;5102708;28;20185;-60
2022/03/05 08:51:34;;;;;;;21.20;14.00;;;5.70;1.00;;;;;;5093073;28;20183;-60
2022/03/05 08:54:00;;;;;;;14.10;12.67;;;;;;;;;;5094568;28;20464;-60
2022/03/05 08:56:26;;;;;;;21.73;14.27;;;5.70;1.00;;;;;;5097895;28;20261;-59
2022/03/05 08:58:51;;;;;;;14.87;12.63;;;5.80;1.00;;;;;;5098226;28;20452;-59
2022/03/05 09:01:20;;;;;;;17.43;12.87;;;5.90;1.00;;;;;;5091435;28;20183;-60
2022/03/05 09:03:46;;;;;;;18.73;13.33;;;;;;;;;;5099101;28;20305;-61
2022/03/05 09:06:17;;;;;;;13.57;12.10;;;5.90;1.00;;;;;;5093484;28;20535;-60
2022/03/05 09:08:43;;;;;;;14.50;12.60;;;6.10;1.00;;;;;;5091264;28;20439;-59
2022/03/05 09:11:21;;;;;;;16.43;13.27;;;6.20;1.00;;;;;;5093107;28;20456;-59
2022/03/05 09:13:47;;;;;;;19.67;12.87;;;;;;;;;;5089178;28;20185;-58
2022/03/05 09:16:19;;;;;;;15.57;13.30;;;6.10;1.00;;;;;;5092142;28;20440;-59
2022/03/05 09:18:44;;;;;;;18.83;14.40;;;6.20;1.00;;;;;;5098574;28;20471;-59
2022/03/05 09:21:25;;;;;;;20.73;15.17;;;6.30;1.00;;;;;;5092807;28;20468;-59
2022/03/05 09:23:51;;;;;;;17.60;14.70;;;6.30;1.00;;;;;;5091282;28;20202;-59
2022/03/05 09:26:19;;;;;;;13.80;11.73;;;6.30;1.00;;;;;;5091085;28;20432;-58
2022/03/05 09:28:45;;;;;;;17.53;13.60;;;6.50;1.00;;;;;;5089937;28;20913;-58
2022/03/05 09:31:22;;;;;;;16.47;12.77;;;6.60;1.00;;;;;;5092231;28;20471;-59
2022/03/05 09:33:48;;;;;;;16.47;14.20;;;6.40;1.00;;;;;;5093099;28;20186;-58
2022/03/05 09:36:23;;;;;;;16.57;13.30;;;6.20;1.00;;;;;;5092525;28;20452;-57
2022/03/05 09:38:48;;;;;;;18.47;13.97;;;6.40;1.00;;;;;;5090608;28;20638;-56
2022/03/05 09:41:32;;;;;;;22.17;15.33;;;6.30;1.00;;;;;;5094503;28;20450;-57
2022/03/05 09:43:58;;;;;;;21.53;14.90;;;6.40;1.00;;;;;;5101023;28;20925;-58
2022/03/05 09:46:25;;;;;;;18.57;14.30;;;6.60;1.00;;;;;;5094489;28;20444;-56
2022/03/05 09:48:56;;;;;;;20.83;14.37;;;6.50;1.00;;;;;;5095051;28;20267;-58
2022/03/05 09:51:23;;;;;;;21.00;14.37;;;6.60;1.00;;;;;;5090573;28;20467;-58
2022/03/05 09:53:52;;;;;;;19.00;13.10;;;6.70;1.00;;;;;;5090699;28;20452;-58
2022/03/05 09:56:21;;;;;;;16.70;12.90;;;7.00;1.00;;;;;;5090099;28;20451;-59
2022/03/05 09:58:48;;;;;;;17.90;14.17;;;7.10;1.00;;;;;;5090972;28;20830;-57
2022/03/05 10:01:30;;;;;;;16.63;13.97;;;7.20;1.00;;;;;;5090286;28;20439;-58
2022/03/05 10:03:56;;;;;;;14.70;12.13;;;;;;;;;;5090284;28;20492;-58
2022/03/05 10:06:27;;;;;;;14.60;11.90;;;7.50;1.00;;;;;;5095734;28;20491;-58
2022/03/05 10:08:55;;;;;;;14.87;12.00;;;;;;;;;;5091131;28;20449;-59
2022/03/05 10:11:22;;;;;;;14.70;11.80;;;7.20;1.00;;;;;;5092661;28;20423;-58
2022/03/05 10:13:48;;;;;;;14.13;11.07;;;7.20;1.00;;;;;;5098865;28;20456;-57
2022/03/05 10:16:33;;;;;;;13.50;9.57;;;7.30;1.00;;;;;;5102120;28;20456;-56
2022/03/05 10:19:21;;;;;;;10.97;9.50;;;7.70;1.00;;;;;;5092000;28;20444;-58
2022/03/05 10:21:57;;;;;;;13.43;10.07;;;7.80;1.00;;;;;;5089830;28;20440;-58
2022/03/05 10:24:34;;;;;;;13.30;9.90;;;7.70;1.00;;;;;;5101549;28;21118;-58
2022/03/05 10:27:00;;;;;;;13.47;9.53;;;7.60;1.00;;;;;;5096801;28;20424;-58
2022/03/05 10:29:35;;;;;;;15.93;10.87;;;7.50;1.00;;;;;;5098883;28;20467;-58
2022/03/05 10:32:04;;;;;;;13.57;10.37;;;7.60;1.00;;;;;;5094013;28;20435;-58
2022/03/05 10:34:50;;;;;;;18.20;11.03;;;7.80;1.00;;;;;;5094763;28;20551;-58
2022/03/05 10:37:17;;;;;;;13.90;11.80;;;7.90;1.00;;;;;;5090468;28;20909;-59
2022/03/05 10:39:45;;;;;;;11.60;10.43;;;8.00;1.00;;;;;;5098715;28;20803;-58
2022/03/05 10:42:25;;;;;;;16.03;10.73;;;8.30;1.00;;;;;;5097775;28;20471;-58
2022/03/05 10:45:07;;;;;;;11.67;10.40;;;8.70;1.00;;;;;;5096923;28;20945;-59
2022/03/05 10:47:46;;;;;;;9.87;6.53;;;8.60;1.00;;;;;;5091928;28;20456;-58
2022/03/05 10:50:14;;;;;;;6.97;6.27;;;8.50;1.00;;;;;;5100142;28;20446;-58
2022/03/05 10:52:53;;;;;;;7.00;5.00;;;8.40;1.00;;;;;;5100100;28;20436;-58
2022/03/05 10:55:24;;;;;;;5.70;4.93;;;8.40;1.00;;;;;;5103058;28;20436;-59
2022/03/05 10:58:00;;;;;;;6.43;5.43;;;8.60;1.00;;;;;;5093213;28;20821;-58
2022/03/05 11:00:26;;;;;;;8.97;7.17;;;9.00;1.00;;;;;;5092531;28;20798;-59
2022/03/05 11:02:52;;;;;;;13.07;9.47;;;9.10;1.00;;;;;;5093963;28;20459;-58
2022/03/05 11:05:22;;;;;;;8.70;6.70;;;9.20;1.00;;;;;;5094532;28;20971;-58
2022/03/05 11:07:51;;;;;;;6.80;5.77;;;9.30;1.00;;;;;;5089564;28;20252;-58
2022/03/05 11:10:18;;;;;;;10.13;5.40;;;9.10;1.00;;;;;;5096723;28;20436;-59
2022/03/05 11:12:51;;;;;;;7.33;5.60;;;8.80;1.00;;;;;;5099808;28;20852;-60
2022/03/05 11:15:18;;;;;;;9.80;5.90;;;8.90;1.00;;;;;;5098260;28;20469;-59
2022/03/05 11:17:46;;;;;;;7.60;6.07;;;8.50;1.00;;;;;;5095264;28;20446;-57
2022/03/05 11:20:13;;;;;;;7.20;5.80;;;8.40;1.00;;;;;;5099887;28;20476;-57
2022/03/05 11:22:40;;;;;;;7.67;6.87;;;8.20;1.00;;;;;;5100963;28;20816;-58
2022/03/05 11:25:10;;;;;;;8.03;6.67;;;8.20;1.00;;;;;;5104625;28;20905;-60
2022/03/05 11:27:36;;;;;;;12.60;7.53;;;8.10;1.00;;;;;;5096874;28;20453;-58
2022/03/05 11:30:05;;;;;;;8.00;6.30;;;10.20;1.00;;;;;;5097193;28;20518;-57
2022/03/05 11:32:37;;;;;;;10.03;8.50;;;8.40;1.00;;;;;;5093665;28;20536;-56
2022/03/05 11:35:21;;;;;;;12.97;7.60;;;8.60;1.00;;;;;;5097608;28;20446;-59
2022/03/05 11:37:47;;;;;;;10.20;8.03;;;8.80;1.00;;;;;;5093560;28;20798;-58
2022/03/05 11:40:32;;;;;;;8.67;6.57;;;8.90;1.00;;;;;;5092000;28;20863;-58
2022/03/05 11:43:17;;;;;;;9.70;7.00;;;9.00;1.00;;;;;;5090458;28;20464;-58
2022/03/05 11:46:02;;;;;;;6.83;6.17;;;9.00;1.00;;;;;;5098844;28;20444;-58
2022/03/05 11:48:36;;;;;;;11.93;6.37;;;9.00;1.00;;;;;;5094057;28;20451;-59
2022/03/05 11:51:08;;;;;;;8.30;7.13;;;9.10;1.00;;;;;;5102255;28;20458;-59
2022/03/05 11:53:34;;;;;;;9.80;7.40;;;9.00;1.00;;;;;;5099981;28;20436;-56
2022/03/05 11:56:21;;;;;;;7.10;5.60;;;9.00;1.00;;;;;;5093718;28;20436;-57
2022/03/05 11:58:47;;;;;;;7.50;5.37;;;9.00;1.00;;;;;;5100179;28;20647;-57
2022/03/05 12:01:44;;;;;;;5.70;4.90;;;8.90;1.00;;;;;;5095240;28;20435;-57
2022/03/05 12:04:22;;;;;;;8.17;4.83;;;8.80;1.00;;;;;;5109850;28;20209;-59
2022/03/05 12:06:51;;;;;;;9.40;6.53;;;8.70;1.00;;;;;;5093835;28;20794;-58
2022/03/05 12:09:38;;;;;;;5.83;5.33;;;8.90;1.00;;;;;;5096551;28;20436;-59
2022/03/05 12:12:06;;;;;;;8.83;5.57;;;9.10;1.00;;;;;;5098299;28;20425;-62
2022/03/05 12:15:04;;;;;;;8.47;6.13;;;9.40;1.00;;;;;;5106920;28;20786;-58
2022/03/05 12:17:48;;;;;;;5.97;4.90;;;9.60;1.00;;;;;;5099151;28;20444;-58
2022/03/05 12:20:20;;;;;;;6.90;4.77;;;9.70;1.00;;;;;;5102359;28;20932;-58
2022/03/05 12:22:55;;;;;;;6.90;5.00;;;9.70;1.00;;;;;;5102040;28;20549;-59
2022/03/05 12:25:22;;;;;;;8.73;3.83;;;9.50;1.00;;;;;;5103911;28;20488;-58
2022/03/05 12:27:50;;;;;;;5.20;4.67;;;9.70;1.00;;;;;;5105235;28;20467;-59
2022/03/05 12:30:20;;;;;;;6.80;5.23;;;10.00;1.00;;;;;;5102697;28;20468;-58
2022/03/05 12:32:47;;;;;;;6.40;4.97;;;10.50;1.00;;;;;;5102146;28;20435;-57
2022/03/05 12:35:15;;;;;;;7.30;5.10;;;10.60;1.00;;;;;;5098034;28;20539;-59
2022/03/05 12:37:43;;;;;;;7.67;5.10;;;10.80;1.00;;;;;;5104665;28;20439;-59
2022/03/05 12:40:11;;;;;;;6.80;5.27;;;10.70;1.00;;;;;;5096043;28;20836;-58
2022/03/05 12:42:48;;;;;;;7.80;6.17;;;10.40;1.00;;;;;;5109230;28;20542;-59
2022/03/05 12:45:17;;;;;;;8.57;5.70;;;10.10;1.00;;;;;;5107935;28;20464;-59
2022/03/05 12:47:43;;;;;;;7.90;6.10;;;10.10;1.00;;;;;;5105802;28;20455;-60
2022/03/05 12:50:20;;;;;;;8.00;6.57;;;10.20;1.00;;;;;;5104632;28;20468;-58
2022/03/05 12:53:03;;;;;;;6.17;5.57;;;10.20;1.00;;;;;;5103815;28;20423;-58
2022/03/05 12:55:34;;;;;;;5.30;4.43;;;10.00;1.00;;;;;;5102042;28;20431;-60
2022/03/05 12:58:05;;;;;;;6.17;4.60;;;9.80;1.00;;;;;;5102402;28;20585;-57
2022/03/05 13:00:31;;;;;;;5.73;4.20;;;9.70;1.00;;;;;;5101756;28;20450;-59
2022/03/05 13:02:57;;;;;;;7.07;5.73;;;9.80;1.00;;;;;;5098713;28;20491;-57
2022/03/05 13:05:23;;;;;;;8.60;6.23;;;9.90;1.00;;;;;;5105372;28;20494;-59
2022/03/05 13:07:48;;;;;;;8.53;6.60;;;10.00;1.00;;;;;;5105779;28;20178;-58
2022/03/05 13:10:17;;;;;;;9.90;7.17;;;10.10;1.00;;;;;;5101774;28;20174;-58
2022/03/05 13:12:43;;;;;;;8.00;5.50;;;10.10;1.00;;;;;;5103166;28;20190;-59